createdAt,value
2018-05-18T00:00:52.228Z,1011.66
2018-05-18T00:01:52.152Z,1011.65
2018-05-18T00:02:52.065Z,1011.64
2018-05-18T00:03:51.983Z,1011.63
2018-05-18T00:04:51.903Z,1011.63
2018-05-18T00:05:51.818Z,1011.61
2018-05-18T00:06:51.742Z,1011.61
2018-05-18T00:07:51.665Z,1011.62
2018-05-18T00:08:51.579Z,1011.61
2018-05-18T00:09:51.504Z,1011.66
2018-05-18T00:10:51.415Z,1011.59
2018-05-18T00:11:51.340Z,1011.61
2018-05-18T00:12:51.254Z,1011.63
2018-05-18T00:13:51.179Z,1011.63
2018-05-18T00:14:51.091Z,1011.60
2018-05-18T00:15:51.021Z,1011.65
2018-05-18T00:16:50.941Z,1011.67
2018-05-18T00:17:50.854Z,1011.66
2018-05-18T00:18:50.768Z,1011.65
2018-05-18T00:19:50.691Z,1011.65
2018-05-18T00:20:50.623Z,1011.62
2018-05-18T00:21:50.529Z,1011.64
2018-05-18T00:22:50.455Z,1011.65
2018-05-18T00:23:50.366Z,1011.66
2018-05-18T00:24:50.291Z,1011.69
2018-05-18T00:25:50.205Z,1011.72
2018-05-18T00:26:50.133Z,1011.68
2018-05-18T00:27:50.048Z,1011.67
2018-05-18T00:28:49.967Z,1011.69
2018-05-18T00:29:49.881Z,1011.71
2018-05-18T00:30:49.806Z,1011.67
2018-05-18T00:31:49.731Z,1011.74
2018-05-18T00:32:49.642Z,1011.73
2018-05-18T00:33:49.567Z,1011.71
2018-05-18T00:34:49.481Z,1011.71
2018-05-18T00:35:49.406Z,1011.75
2018-05-18T00:36:49.318Z,1011.74
2018-05-18T00:37:49.243Z,1011.73
2018-05-18T00:38:49.157Z,1011.73
2018-05-18T00:39:49.085Z,1011.66
2018-05-18T00:40:48.993Z,1011.71
2018-05-18T00:41:48.918Z,1011.71
2018-05-18T00:42:48.831Z,1011.69
2018-05-18T00:43:48.756Z,1011.72
2018-05-18T00:44:48.670Z,1011.75
2018-05-18T00:45:48.593Z,1011.78
2018-05-18T00:46:48.518Z,1011.79
2018-05-18T00:47:48.440Z,1011.74
2018-05-18T00:48:48.357Z,1011.78
2018-05-18T00:49:48.269Z,1011.77
2018-05-18T00:50:48.197Z,1011.75
2018-05-18T00:51:48.118Z,1011.75
2018-05-18T00:52:48.033Z,1011.74
2018-05-18T00:53:47.956Z,1011.82
2018-05-18T00:54:47.870Z,1011.76
2018-05-18T00:55:47.784Z,1011.76
2018-05-18T00:56:47.710Z,1011.77
2018-05-18T00:57:47.620Z,1011.74
2018-05-18T00:58:47.548Z,1011.76
2018-05-18T00:59:47.466Z,1011.76
2018-05-18T01:00:47.388Z,1011.77
2018-05-18T01:01:47.296Z,1011.76
2018-05-18T01:02:47.220Z,1011.76
2018-05-18T01:03:47.159Z,1011.78
2018-05-18T01:04:47.059Z,1011.79
2018-05-18T01:05:46.983Z,1011.79
2018-05-18T01:06:46.896Z,1011.81
2018-05-18T01:07:46.821Z,1011.87
2018-05-18T01:08:46.734Z,1011.85
2018-05-18T01:09:46.660Z,1011.84
2018-05-18T01:10:46.571Z,1011.88
2018-05-18T01:11:46.497Z,1011.89
2018-05-18T01:12:46.423Z,1011.90
2018-05-18T01:13:46.334Z,1011.86
2018-05-18T01:14:46.259Z,1011.88
2018-05-18T01:15:46.196Z,1011.88
2018-05-18T01:16:46.086Z,1011.88
2018-05-18T01:17:46.010Z,1011.85
2018-05-18T01:18:45.923Z,1011.90
2018-05-18T01:19:45.860Z,1011.86
2018-05-18T01:20:45.761Z,1011.92
2018-05-18T01:21:45.686Z,1011.89
2018-05-18T01:22:45.599Z,1011.88
2018-05-18T01:23:45.525Z,1011.86
2018-05-18T01:24:45.449Z,1011.82
2018-05-18T01:25:45.361Z,1011.82
2018-05-18T01:26:45.275Z,1011.81
2018-05-18T01:27:45.199Z,1011.76
2018-05-18T01:28:45.136Z,1011.80
2018-05-18T01:29:45.037Z,1011.77
2018-05-18T01:30:44.962Z,1011.78
2018-05-18T01:31:44.873Z,1011.78
2018-05-18T01:32:44.800Z,1011.79
2018-05-18T01:33:44.713Z,1011.81
2018-05-18T01:34:44.637Z,1011.80
2018-05-18T01:35:44.549Z,1011.79
2018-05-18T01:36:44.475Z,1011.83
2018-05-18T01:37:44.388Z,1011.81
2018-05-18T01:38:44.313Z,1011.80
2018-05-18T01:39:44.225Z,1011.84
2018-05-18T01:40:44.151Z,1011.84
2018-05-18T01:41:44.063Z,1011.82
2018-05-18T01:42:43.988Z,1011.84
2018-05-18T01:43:43.899Z,1011.84
2018-05-18T01:44:43.825Z,1011.82
2018-05-18T01:45:43.738Z,1011.82
2018-05-18T01:46:43.664Z,1011.84
2018-05-18T01:47:43.576Z,1011.81
2018-05-18T01:48:43.500Z,1011.81
2018-05-18T01:49:43.413Z,1011.84
2018-05-18T01:50:43.338Z,1011.84
2018-05-18T01:51:43.251Z,1011.80
2018-05-18T01:52:43.175Z,1011.80
2018-05-18T01:53:43.089Z,1011.82
2018-05-18T01:54:43.015Z,1011.80
2018-05-18T01:55:42.926Z,1011.84
2018-05-18T01:56:42.851Z,1011.85
2018-05-18T01:57:42.765Z,1011.85
2018-05-18T01:58:42.690Z,1011.89
2018-05-18T01:59:42.602Z,1011.90
2018-05-18T02:00:42.527Z,1011.91
2018-05-18T02:01:42.441Z,1011.97
2018-05-18T02:02:42.365Z,1011.90
2018-05-18T02:03:42.283Z,1011.92
2018-05-18T02:04:42.202Z,1011.93
2018-05-18T02:05:42.115Z,1011.93
2018-05-18T02:06:42.041Z,1011.95
2018-05-18T02:07:41.953Z,1011.95
2018-05-18T02:08:41.877Z,1011.96
2018-05-18T02:09:41.791Z,1011.94
2018-05-18T02:10:41.716Z,1011.96
2018-05-18T02:11:41.629Z,1011.95
2018-05-18T02:12:41.553Z,1011.94
2018-05-18T02:13:41.468Z,1011.94
2018-05-18T02:14:41.391Z,1011.96
2018-05-18T02:15:41.305Z,1011.99
2018-05-18T02:16:41.246Z,1012.00
2018-05-18T02:17:41.142Z,1011.98
2018-05-18T02:18:41.073Z,1011.94
2018-05-18T02:19:40.981Z,1011.98
2018-05-18T02:20:40.904Z,1011.94
2018-05-18T02:21:40.818Z,1011.95
2018-05-18T02:22:40.743Z,1011.94
2018-05-18T02:23:40.656Z,1011.91
2018-05-18T02:24:40.581Z,1011.94
2018-05-18T02:25:40.497Z,1011.97
2018-05-18T02:26:40.417Z,1011.98
2018-05-18T02:27:40.342Z,1011.96
2018-05-18T02:28:40.255Z,1012.01
2018-05-18T02:29:40.172Z,1011.94
2018-05-18T02:30:40.093Z,1011.96
2018-05-18T02:31:40.008Z,1011.98
2018-05-18T02:32:39.944Z,1011.97
2018-05-18T02:33:39.845Z,1011.97
2018-05-18T02:34:39.775Z,1011.96
2018-05-18T02:35:39.683Z,1011.97
2018-05-18T02:36:39.605Z,1012.02
2018-05-18T02:37:39.519Z,1011.97
2018-05-18T02:38:39.444Z,1011.96
2018-05-18T02:39:39.361Z,1012.01
2018-05-18T02:40:39.282Z,1012.02
2018-05-18T02:41:39.195Z,1012.02
2018-05-18T02:42:39.120Z,1011.96
2018-05-18T02:43:39.045Z,1011.99
2018-05-18T02:44:38.957Z,1011.97
2018-05-18T02:45:38.871Z,1011.98
2018-05-18T02:46:38.808Z,1011.98
2018-05-18T02:47:38.708Z,1012.05
2018-05-18T02:48:38.631Z,1011.98
2018-05-18T02:49:38.545Z,1012.00
2018-05-18T02:50:38.470Z,1011.95
2018-05-18T02:51:38.384Z,1011.93
2018-05-18T02:52:38.307Z,1012.00
2018-05-18T02:53:38.223Z,1011.97
2018-05-18T02:54:38.146Z,1012.02
2018-05-18T02:55:38.060Z,1012.01
2018-05-18T02:56:37.982Z,1012.02
2018-05-18T02:57:37.896Z,1012.04
2018-05-18T02:58:37.821Z,1012.05
2018-05-18T02:59:37.734Z,1012.02
2018-05-18T03:00:37.657Z,1012.04
2018-05-18T03:01:37.570Z,1012.06
2018-05-18T03:02:37.501Z,1012.08
2018-05-18T03:03:37.409Z,1012.09
2018-05-18T03:04:37.333Z,1012.09
2018-05-18T03:05:37.248Z,1012.07
2018-05-18T03:06:37.172Z,1012.07
2018-05-18T03:07:37.085Z,1012.11
2018-05-18T03:08:37.009Z,1012.07
2018-05-18T03:09:36.921Z,1012.10
2018-05-18T03:10:36.848Z,1012.10
2018-05-18T03:11:36.759Z,1012.08
2018-05-18T03:12:36.685Z,1012.11
2018-05-18T03:13:36.597Z,1012.11
2018-05-18T03:14:36.523Z,1012.11
2018-05-18T03:15:36.435Z,1012.13
2018-05-18T03:16:36.362Z,1012.09
2018-05-18T03:17:36.273Z,1012.12
2018-05-18T03:18:36.197Z,1012.13
2018-05-18T03:19:36.109Z,1012.12
2018-05-18T03:20:36.035Z,1012.11
2018-05-18T03:21:35.950Z,1012.14
2018-05-18T03:22:35.874Z,1012.15
2018-05-18T03:23:35.798Z,1012.20
2018-05-18T03:24:35.710Z,1012.21
2018-05-18T03:25:35.623Z,1012.24
2018-05-18T03:26:35.549Z,1012.23
2018-05-18T03:27:35.460Z,1012.27
2018-05-18T03:28:35.399Z,1012.23
2018-05-18T03:29:35.303Z,1012.23
2018-05-18T03:30:35.253Z,1012.28
2018-05-18T03:31:35.136Z,1012.24
2018-05-18T03:32:35.066Z,1012.25
2018-05-18T03:33:34.975Z,1012.29
2018-05-18T03:34:34.899Z,1012.32
2018-05-18T03:35:34.811Z,1012.31
2018-05-18T03:36:34.739Z,1012.30
2018-05-18T03:37:34.650Z,1012.31
2018-05-18T03:38:34.575Z,1012.34
2018-05-18T03:39:34.499Z,1012.32
2018-05-18T03:40:34.411Z,1012.32
2018-05-18T03:41:34.324Z,1012.34
2018-05-18T03:42:34.251Z,1012.35
2018-05-18T03:43:34.161Z,1012.34
2018-05-18T03:44:34.088Z,1012.34
2018-05-18T03:45:34.000Z,1012.34
2018-05-18T03:46:33.926Z,1012.36
2018-05-18T03:47:33.837Z,1012.38
2018-05-18T03:48:33.763Z,1012.40
2018-05-18T03:49:33.676Z,1012.36
2018-05-18T03:50:33.601Z,1012.39
2018-05-18T03:51:33.513Z,1012.33
2018-05-18T03:52:33.451Z,1012.37
2018-05-18T03:53:33.351Z,1012.36
2018-05-18T03:54:33.280Z,1012.32
2018-05-18T03:55:33.188Z,1012.33
2018-05-18T03:56:33.117Z,1012.34
2018-05-18T03:57:33.027Z,1012.35
2018-05-18T03:58:32.952Z,1012.34
2018-05-18T03:59:32.864Z,1012.41
2018-05-18T04:00:32.790Z,1012.40
2018-05-18T04:01:32.702Z,1012.43
2018-05-18T04:02:32.627Z,1012.43
2018-05-18T04:03:32.540Z,1012.45
2018-05-18T04:04:32.469Z,1012.43
2018-05-18T04:05:32.378Z,1012.46
2018-05-18T04:06:32.303Z,1012.47
2018-05-18T04:07:32.215Z,1012.46
2018-05-18T04:10:54.920Z,1012.45
2018-05-18T04:11:15.365Z,1012.47
2018-05-18T04:12:15.278Z,1012.46
2018-05-18T04:13:15.203Z,1012.46
2018-05-18T04:14:15.119Z,1012.45
2018-05-18T04:15:15.040Z,1012.40
2018-05-18T04:16:14.954Z,1012.47
2018-05-18T04:17:14.878Z,1012.44
2018-05-18T04:18:15.043Z,1012.43
2018-05-18T04:19:14.716Z,1012.35
2018-05-18T04:20:14.641Z,1012.42
2018-05-18T04:21:14.556Z,1012.39
2018-05-18T04:22:14.466Z,1012.43
2018-05-18T04:23:14.392Z,1012.42
2018-05-18T04:24:14.308Z,1012.40
2018-05-18T04:25:14.231Z,1012.40
2018-05-18T04:26:14.142Z,1012.40
2018-05-18T04:27:14.068Z,1012.46
2018-05-18T04:28:13.980Z,1012.41
2018-05-18T04:29:13.905Z,1012.39
2018-05-18T04:30:13.933Z,1012.43
2018-05-18T04:31:13.745Z,1012.46
2018-05-18T04:32:13.658Z,1012.45
2018-05-18T04:33:13.581Z,1012.48
2018-05-18T04:34:13.494Z,1012.53
2018-05-18T04:35:13.431Z,1012.49
2018-05-18T04:36:13.335Z,1012.52
2018-05-18T04:37:13.261Z,1012.49
2018-05-18T04:38:13.172Z,1012.50
2018-05-18T04:39:13.093Z,1012.53
2018-05-18T04:40:13.007Z,1012.48
2018-05-18T04:41:12.932Z,1012.54
2018-05-18T04:42:12.845Z,1012.48
2018-05-18T04:43:13.082Z,1012.48
2018-05-18T04:44:12.693Z,1012.52
2018-05-18T04:45:12.607Z,1012.51
2018-05-18T04:46:12.535Z,1012.46
2018-05-18T04:47:12.444Z,1012.52
2018-05-18T04:48:12.369Z,1012.54
2018-05-18T04:49:12.283Z,1012.53
2018-05-18T04:50:12.212Z,1012.52
2018-05-18T04:51:12.120Z,1012.59
2018-05-18T04:52:12.045Z,1012.58
2018-05-18T04:53:11.958Z,1012.56
2018-05-18T04:54:11.883Z,1012.60
2018-05-18T04:55:11.800Z,1012.62
2018-05-18T04:56:11.720Z,1012.62
2018-05-18T04:57:11.658Z,1012.64
2018-05-18T04:58:11.559Z,1012.65
2018-05-18T04:59:11.484Z,1012.73
2018-05-18T05:00:11.397Z,1012.74
2018-05-18T05:01:11.321Z,1012.75
2018-05-18T05:02:11.234Z,1012.75
2018-05-18T05:03:11.159Z,1012.76
2018-05-18T05:04:11.075Z,1012.73
2018-05-18T05:05:10.996Z,1012.76
2018-05-18T05:06:10.921Z,1012.73
2018-05-18T05:07:10.835Z,1012.78
2018-05-18T05:08:10.759Z,1012.81
2018-05-18T05:09:10.671Z,1012.80
2018-05-18T05:10:10.597Z,1012.80
2018-05-18T05:11:10.510Z,1012.82
2018-05-18T05:12:10.435Z,1012.85
2018-05-18T05:13:10.360Z,1012.85
2018-05-18T05:14:10.272Z,1012.90
2018-05-18T05:15:10.197Z,1012.90
2018-05-18T05:16:10.122Z,1012.91
2018-05-18T05:17:10.036Z,1012.92
2018-05-18T05:18:10.198Z,1012.94
2018-05-18T05:19:09.872Z,1012.93
2018-05-18T05:20:09.797Z,1012.95
2018-05-18T05:21:09.712Z,1012.95
2018-05-18T05:22:09.636Z,1012.95
2018-05-18T05:23:09.547Z,1012.96
2018-05-18T05:24:09.473Z,1013.09
2018-05-18T05:25:09.398Z,1012.98
2018-05-18T05:26:09.312Z,1013.02
2018-05-18T05:27:09.236Z,1013.02
2018-05-18T05:28:09.148Z,1013.02
2018-05-18T05:29:09.073Z,1013.06
2018-05-18T05:30:09.002Z,1013.08
2018-05-18T05:31:08.912Z,1013.06
2018-05-18T05:32:08.837Z,1013.05
2018-05-18T05:33:08.749Z,1012.98
2018-05-18T05:34:08.674Z,1013.00
2018-05-18T05:35:08.588Z,1012.98
2018-05-18T05:36:08.513Z,1013.05
2018-05-18T05:37:08.441Z,1013.06
2018-05-18T05:38:08.357Z,1013.06
2018-05-18T05:39:08.275Z,1013.10
2018-05-18T05:40:08.214Z,1013.12
2018-05-18T05:41:08.114Z,1013.12
2018-05-18T05:42:08.043Z,1013.08
2018-05-18T05:43:07.950Z,1013.08
2018-05-18T05:44:07.885Z,1013.08
2018-05-18T05:45:07.803Z,1013.07
2018-05-18T05:46:07.713Z,1013.09
2018-05-18T05:47:07.642Z,1013.15
2018-05-18T05:48:07.552Z,1013.08
2018-05-18T05:49:07.476Z,1013.13
2018-05-18T05:50:07.401Z,1013.12
2018-05-18T05:51:07.315Z,1013.16
2018-05-18T05:52:07.246Z,1013.16
2018-05-18T05:53:07.165Z,1013.16
2018-05-18T05:54:07.076Z,1013.17
2018-05-18T05:55:07.001Z,1013.15
2018-05-18T05:56:06.915Z,1013.16
2018-05-18T05:57:06.839Z,1013.17
2018-05-18T05:58:06.764Z,1013.17
2018-05-18T05:59:06.677Z,1013.22
2018-05-18T06:00:06.602Z,1013.15
2018-05-18T06:01:06.540Z,1013.26
2018-05-18T06:02:06.440Z,1013.22
2018-05-18T06:03:06.368Z,1013.23
2018-05-18T06:04:06.278Z,1013.22
2018-05-18T06:05:06.203Z,1013.21
2018-05-18T06:06:06.142Z,1013.24
2018-05-18T06:07:06.046Z,1013.20
2018-05-18T06:08:05.967Z,1013.22
2018-05-18T06:09:05.890Z,1013.22
2018-05-18T06:10:05.803Z,1013.22
2018-05-18T06:11:05.728Z,1013.26
2018-05-18T06:12:05.731Z,1013.26
2018-05-18T06:13:05.569Z,1013.29
2018-05-18T06:14:05.492Z,1013.30
2018-05-18T06:15:05.403Z,1013.31
2018-05-18T06:16:05.330Z,1013.32
2018-05-18T06:17:05.255Z,1013.30
2018-05-18T06:18:05.167Z,1013.29
2018-05-18T06:19:05.092Z,1013.33
2018-05-18T06:20:05.006Z,1013.27
2018-05-18T06:21:04.929Z,1013.40
2018-05-18T06:22:04.854Z,1013.41
2018-05-18T06:23:04.768Z,1013.37
2018-05-18T06:24:04.693Z,1013.38
2018-05-18T06:25:04.618Z,1013.35
2018-05-18T06:26:04.530Z,1013.32
2018-05-18T06:27:04.455Z,1013.32
2018-05-18T06:28:04.380Z,1013.38
2018-05-18T06:29:04.293Z,1013.34
2018-05-18T06:30:04.221Z,1013.35
2018-05-18T06:31:04.131Z,1013.36
2018-05-18T06:32:04.055Z,1013.38
2018-05-18T06:33:03.980Z,1013.34
2018-05-18T06:34:03.905Z,1013.34
2018-05-18T06:35:03.832Z,1013.34
2018-05-18T06:36:03.744Z,1013.33
2018-05-18T06:37:03.656Z,1013.39
2018-05-18T06:38:03.580Z,1013.34
2018-05-18T06:39:03.506Z,1013.35
2018-05-18T06:40:03.420Z,1013.28
2018-05-18T06:41:03.346Z,1013.38
2018-05-18T06:42:03.257Z,1013.39
2018-05-18T06:43:03.182Z,1013.41
2018-05-18T06:44:03.108Z,1013.39
2018-05-18T06:45:03.020Z,1013.40
2018-05-18T06:46:02.945Z,1013.42
2018-05-18T06:47:02.869Z,1013.44
2018-05-18T06:48:02.784Z,1013.49
2018-05-18T06:49:02.707Z,1013.50
2018-05-18T06:50:02.634Z,1013.49
2018-05-18T06:51:02.544Z,1013.53
2018-05-18T06:52:02.469Z,1013.50
2018-05-18T06:53:02.382Z,1013.52
2018-05-18T06:54:02.307Z,1013.54
2018-05-18T06:55:02.231Z,1013.52
2018-05-18T06:56:02.144Z,1013.51
2018-05-18T06:57:02.069Z,1013.54
2018-05-18T06:58:01.994Z,1013.59
2018-05-18T06:59:01.908Z,1013.55
2018-05-18T07:00:01.831Z,1013.57
2018-05-18T07:01:01.759Z,1013.53
2018-05-18T07:02:01.670Z,1013.55
2018-05-18T07:03:01.845Z,1013.58
2018-05-18T07:04:01.569Z,1013.56
2018-05-18T07:05:01.432Z,1013.55
2018-05-18T07:06:01.356Z,1013.53
2018-05-18T07:07:01.295Z,1013.55
2018-05-18T07:08:01.195Z,1013.54
2018-05-18T07:09:01.124Z,1013.52
2018-05-18T07:10:01.045Z,1013.50
2018-05-18T07:11:00.958Z,1013.52
2018-05-18T07:12:00.895Z,1013.52
2018-05-18T07:13:00.807Z,1013.48
2018-05-18T07:14:00.723Z,1013.51
2018-05-18T07:15:00.646Z,1013.52
2018-05-18T07:16:00.571Z,1013.50
2018-05-18T07:17:00.483Z,1013.53
2018-05-18T07:18:00.407Z,1013.56
2018-05-18T07:19:00.333Z,1013.54
2018-05-18T07:20:00.245Z,1013.61
2018-05-18T07:21:00.171Z,1013.58
2018-05-18T07:22:00.146Z,1013.61
2018-05-18T07:23:00.030Z,1013.54
2018-05-18T07:23:59.933Z,1013.59
2018-05-18T07:24:59.859Z,1013.58
2018-05-18T07:25:59.783Z,1013.61
2018-05-18T07:26:59.696Z,1013.53
2018-05-18T07:27:59.622Z,1013.57
2018-05-18T07:28:59.550Z,1013.56
2018-05-18T07:29:59.466Z,1013.55
2018-05-18T07:30:59.384Z,1013.47
2018-05-18T07:31:59.309Z,1013.52
2018-05-18T07:32:59.234Z,1013.50
2018-05-18T07:33:59.148Z,1013.49
2018-05-18T07:34:59.074Z,1013.52
2018-05-18T07:36:02.024Z,1013.57
2018-05-18T07:37:00.125Z,1013.55
2018-05-18T07:37:59.085Z,1013.58
2018-05-18T07:38:58.760Z,1013.61
2018-05-18T07:39:58.691Z,1013.60
2018-05-18T07:40:58.598Z,1013.61
2018-05-18T07:41:58.524Z,1013.65
2018-05-18T07:42:58.449Z,1013.57
2018-05-18T07:43:58.422Z,1013.65
2018-05-18T07:44:58.286Z,1013.64
2018-05-18T07:45:58.812Z,1013.64
2018-05-18T07:46:58.136Z,1013.64
2018-05-18T07:47:58.049Z,1013.65
2018-05-18T07:48:57.976Z,1013.65
2018-05-18T07:49:57.899Z,1013.63
2018-05-18T07:50:57.825Z,1013.66
2018-05-18T07:51:57.741Z,1013.67
2018-05-18T07:52:57.665Z,1013.70
2018-05-18T07:53:57.590Z,1013.69
2018-05-18T07:54:57.516Z,1013.70
2018-05-18T07:55:57.426Z,1013.72
2018-05-18T07:56:57.358Z,1013.70
2018-05-18T07:57:57.276Z,1013.66
2018-05-18T07:58:57.201Z,1013.67
2018-05-18T07:59:57.127Z,1013.66
2018-05-18T08:00:57.039Z,1013.64
2018-05-18T08:01:56.967Z,1013.65
2018-05-18T08:02:56.888Z,1013.64
2018-05-18T08:03:57.767Z,1013.66
2018-05-18T08:04:56.939Z,1013.64
2018-05-18T08:05:56.668Z,1013.67
2018-05-18T08:06:56.577Z,1013.67
2018-05-18T08:07:56.596Z,1013.70
2018-05-18T08:08:56.428Z,1013.63
2018-05-18T08:09:56.354Z,1013.69
2018-05-18T08:10:56.278Z,1013.71
2018-05-18T08:11:56.202Z,1013.71
2018-05-18T08:12:56.128Z,1013.73
2018-05-18T08:13:56.040Z,1013.75
2018-05-18T08:14:55.978Z,1013.66
2018-05-18T08:15:55.890Z,1013.72
2018-05-18T08:17:37.941Z,1013.69
2018-05-18T08:18:41.690Z,1013.74
2018-05-18T08:19:37.779Z,1013.71
2018-05-18T08:20:37.704Z,1013.80
2018-05-18T08:21:37.695Z,1013.72
2018-05-18T08:22:37.555Z,1013.71
2018-05-18T08:23:37.479Z,1013.72
2018-05-18T08:25:22.143Z,1013.78
2018-05-18T08:26:19.539Z,1013.69
2018-05-18T08:27:19.369Z,1013.73
2018-05-18T08:28:19.298Z,1013.69
2018-05-18T08:29:19.216Z,1013.75
2018-05-18T08:30:19.143Z,1013.76
2018-05-18T08:31:19.068Z,1013.78
2018-05-18T08:32:19.005Z,1013.80
2018-05-18T08:33:18.917Z,1013.75
2018-05-18T08:34:18.831Z,1013.83
2018-05-18T08:36:00.881Z,1013.78
2018-05-18T08:37:00.805Z,1013.82
2018-05-18T08:38:00.731Z,1013.82
2018-05-18T08:39:00.656Z,1013.82
2018-05-18T08:40:03.206Z,1013.95
2018-05-18T08:41:00.507Z,1013.94
2018-05-18T08:42:00.427Z,1013.91
2018-05-18T08:43:00.344Z,1013.96
2018-05-18T08:44:00.278Z,1013.93
2018-05-18T08:45:00.194Z,1013.99
2018-05-18T08:46:00.120Z,1013.93
2018-05-18T08:47:42.158Z,1013.99
2018-05-18T08:48:42.082Z,1013.98
2018-05-18T08:49:42.007Z,1014.01
2018-05-18T08:50:41.933Z,1014.03
2018-05-18T08:51:41.858Z,1014.06
2018-05-18T08:52:41.789Z,1014.05
2018-05-18T08:53:41.708Z,1014.10
2018-05-18T08:54:41.620Z,1014.06
2018-05-18T08:55:41.547Z,1014.07
2018-05-18T08:56:41.470Z,1014.12
2018-05-18T08:57:41.395Z,1014.08
2018-05-18T08:59:23.433Z,1014.10
2018-05-18T09:00:23.363Z,1014.14
2018-05-18T09:01:23.290Z,1014.15
2018-05-18T09:03:50.271Z,1014.19
2018-05-18T09:04:47.372Z,1014.18
2018-05-18T09:10:00.285Z,1014.15
2018-05-18T09:11:00.210Z,1014.22
2018-05-18T09:12:00.138Z,1014.16
2018-05-18T09:13:00.061Z,1014.18
2018-05-18T09:13:59.974Z,1014.19
2018-05-18T09:14:59.897Z,1014.22
2018-05-18T09:15:59.833Z,1014.21
2018-05-18T09:16:59.748Z,1014.20
2018-05-18T09:17:59.672Z,1014.26
2018-05-18T09:18:59.586Z,1014.23
2018-05-18T09:19:59.511Z,1014.25
2018-05-18T09:20:59.437Z,1014.26
2018-05-18T09:21:59.364Z,1014.24
2018-05-18T09:22:59.286Z,1014.27
2018-05-18T09:23:59.198Z,1014.25
2018-05-18T09:24:59.127Z,1014.26
2018-05-18T09:25:59.048Z,1014.25
2018-05-18T09:26:58.989Z,1014.26
2018-05-18T09:27:58.902Z,1014.25
2018-05-18T09:28:58.827Z,1014.26
2018-05-18T09:29:58.737Z,1014.28
2018-05-18T09:30:58.662Z,1014.32
2018-05-18T09:31:58.590Z,1014.30
2018-05-18T09:32:58.507Z,1014.34
2018-05-18T09:33:58.429Z,1014.34
2018-05-18T09:34:58.350Z,1014.36
2018-05-18T09:35:58.274Z,1014.33
2018-05-18T09:36:58.206Z,1014.37
2018-05-18T09:37:58.125Z,1014.39
2018-05-18T09:38:58.038Z,1014.39
2018-05-18T09:39:57.970Z,1014.34
2018-05-18T09:40:57.887Z,1014.43
2018-05-18T09:41:57.814Z,1014.37
2018-05-18T09:42:57.738Z,1014.37
2018-05-18T09:43:57.653Z,1014.37
2018-05-18T09:44:57.574Z,1014.43
2018-05-18T09:45:57.501Z,1014.37
2018-05-18T09:46:57.425Z,1014.46
2018-05-18T09:47:57.351Z,1014.44
2018-05-18T09:48:57.265Z,1014.42
2018-05-18T09:49:57.189Z,1014.40
2018-05-18T09:50:57.114Z,1014.46
2018-05-18T09:51:57.040Z,1014.43
2018-05-18T09:52:56.971Z,1014.47
2018-05-18T09:53:56.996Z,1014.53
2018-05-18T09:54:56.979Z,1014.51
2018-05-18T09:55:56.726Z,1014.45
2018-05-18T09:56:56.664Z,1014.49
2018-05-18T09:57:56.576Z,1014.45
2018-05-18T09:58:56.501Z,1014.53
2018-05-18T09:59:56.427Z,1014.48
2018-05-18T10:00:56.340Z,1014.48
2018-05-18T10:01:56.266Z,1014.48
2018-05-18T10:02:56.190Z,1014.45
2018-05-18T10:03:56.116Z,1014.45
2018-05-18T10:04:56.041Z,1014.46
2018-05-18T10:05:55.965Z,1014.47
2018-05-18T10:06:55.903Z,1014.44
2018-05-18T10:07:55.806Z,1014.43
2018-05-18T10:08:55.727Z,1014.44
2018-05-18T10:09:55.652Z,1014.46
2018-05-18T10:10:55.577Z,1014.49
2018-05-18T10:11:55.502Z,1014.50
2018-05-18T10:12:55.415Z,1014.48
2018-05-18T10:13:55.347Z,1014.46
2018-05-18T10:14:55.266Z,1014.49
2018-05-18T10:15:55.191Z,1014.47
2018-05-18T10:16:55.116Z,1014.51
2018-05-18T10:17:55.044Z,1014.50
2018-05-18T10:18:54.955Z,1014.52
2018-05-18T10:19:54.879Z,1014.53
2018-05-18T10:20:54.803Z,1014.56
2018-05-18T10:21:54.728Z,1014.53
2018-05-18T10:22:54.653Z,1014.59
2018-05-18T10:23:54.578Z,1014.55
2018-05-18T10:24:54.504Z,1014.57
2018-05-18T10:25:54.417Z,1014.54
2018-05-18T10:26:54.351Z,1014.58
2018-05-18T10:27:54.267Z,1014.56
2018-05-18T10:28:54.192Z,1014.56
2018-05-18T10:29:54.121Z,1014.58
2018-05-18T10:30:54.043Z,1014.59
2018-05-18T10:31:53.966Z,1014.57
2018-05-18T10:32:53.951Z,1014.61
2018-05-18T10:33:53.804Z,1014.59
2018-05-18T10:34:53.743Z,1014.64
2018-05-18T10:35:53.654Z,1014.59
2018-05-18T10:36:53.580Z,1014.57
2018-05-18T10:37:53.505Z,1014.57
2018-05-18T10:38:53.443Z,1014.62
2018-05-18T10:39:53.343Z,1014.62
2018-05-18T10:40:53.268Z,1014.70
2018-05-18T10:41:53.205Z,1014.62
2018-05-18T10:42:53.118Z,1014.68
2018-05-18T10:43:53.044Z,1014.66
2018-05-18T10:44:52.971Z,1014.65
2018-05-18T10:45:52.894Z,1014.66
2018-05-18T10:46:52.819Z,1014.65
2018-05-18T10:47:52.745Z,1014.60
2018-05-18T10:48:52.658Z,1014.64
2018-05-18T10:49:52.582Z,1014.65
2018-05-18T10:50:52.510Z,1014.63
2018-05-18T10:51:52.445Z,1014.67
2018-05-18T10:52:52.360Z,1014.64
2018-05-18T10:53:52.282Z,1014.70
2018-05-18T10:54:52.210Z,1014.66
2018-05-18T10:55:52.133Z,1014.70
2018-05-18T10:56:52.057Z,1014.71
2018-05-18T10:57:51.983Z,1014.68
2018-05-18T10:58:51.908Z,1014.68
2018-05-18T10:59:51.822Z,1014.70
2018-05-18T11:00:51.746Z,1014.71
2018-05-18T11:01:51.670Z,1014.74
2018-05-18T11:02:51.595Z,1014.77
2018-05-18T11:03:51.526Z,1014.74
2018-05-18T11:04:51.447Z,1014.82
2018-05-18T11:05:51.372Z,1014.79
2018-05-18T11:06:51.361Z,1014.79
2018-05-18T11:07:51.224Z,1014.70
2018-05-18T11:08:51.147Z,1014.75
2018-05-18T11:09:51.076Z,1014.77
2018-05-18T11:10:50.985Z,1014.75
2018-05-18T11:11:50.909Z,1014.76
2018-05-18T11:12:50.833Z,1014.76
2018-05-18T11:13:50.764Z,1014.77
2018-05-18T11:14:50.686Z,1014.82
2018-05-18T11:15:50.609Z,1014.79
2018-05-18T11:16:50.534Z,1014.76
2018-05-18T11:17:50.461Z,1014.80
2018-05-18T11:18:50.373Z,1014.75
2018-05-18T11:19:50.298Z,1014.77
2018-05-18T11:20:50.226Z,1014.77
2018-05-18T11:21:50.148Z,1014.73
2018-05-18T11:22:50.076Z,1014.76
2018-05-18T11:23:49.999Z,1014.74
2018-05-18T11:24:49.925Z,1014.75
2018-05-18T11:25:49.887Z,1014.78
2018-05-18T11:26:49.762Z,1014.77
2018-05-18T11:27:49.686Z,1014.76
2018-05-18T11:28:49.610Z,1014.76
2018-05-18T11:29:49.611Z,1014.78
2018-05-18T11:30:49.461Z,1014.75
2018-05-18T11:31:49.387Z,1014.77
2018-05-18T11:32:49.311Z,1014.81
2018-05-18T11:33:49.236Z,1014.79
2018-05-18T11:34:49.150Z,1014.78
2018-05-18T11:35:49.075Z,1014.77
2018-05-18T11:36:49.000Z,1014.74
2018-05-18T11:37:48.930Z,1014.75
2018-05-18T11:38:48.850Z,1014.74
2018-05-18T11:39:48.774Z,1014.75
2018-05-18T11:40:48.700Z,1014.69
2018-05-18T11:41:48.626Z,1014.72
2018-05-18T11:42:48.538Z,1014.72
2018-05-18T11:43:48.466Z,1014.76
2018-05-18T11:44:48.399Z,1014.75
2018-05-18T11:45:48.312Z,1014.74
2018-05-18T11:46:48.237Z,1014.75
2018-05-18T11:47:48.162Z,1014.76
2018-05-18T11:48:48.101Z,1014.72
2018-05-18T11:49:48.012Z,1014.74
2018-05-18T11:50:47.932Z,1014.78
2018-05-18T11:51:47.851Z,1014.78
2018-05-18T11:52:47.776Z,1014.80
2018-05-18T11:53:47.707Z,1014.78
2018-05-18T11:54:47.675Z,1014.78
2018-05-18T11:55:47.551Z,1014.79
2018-05-18T11:56:47.476Z,1014.82
2018-05-18T11:57:47.402Z,1014.81
2018-05-18T11:58:47.314Z,1014.84
2018-05-18T11:59:47.238Z,1014.82
2018-05-18T12:00:47.164Z,1014.84
2018-05-18T12:01:47.091Z,1014.84
2018-05-18T12:02:47.015Z,1014.83
2018-05-18T12:03:46.940Z,1014.87
2018-05-18T12:04:46.864Z,1014.85
2018-05-18T12:05:46.803Z,1014.85
2018-05-18T12:06:46.703Z,1014.89
2018-05-18T12:07:46.633Z,1014.89
2018-05-18T12:08:46.554Z,1014.85
2018-05-18T12:09:46.480Z,1014.90
2018-05-18T12:10:46.404Z,1014.85
2018-05-18T12:11:46.335Z,1014.85
2018-05-18T12:12:46.254Z,1014.86
2018-05-18T12:13:46.179Z,1014.93
2018-05-18T12:14:46.104Z,1014.92
2018-05-18T12:15:46.016Z,1014.88